createdAt,value
2018-07-08T00:01:18.303Z,101086.56
2018-07-08T00:03:47.026Z,101084.56
2018-07-08T00:06:15.756Z,101087.59
2018-07-08T00:08:44.277Z,101091.98
2018-07-08T00:11:12.861Z,101083.50
2018-07-08T00:13:41.691Z,101086.45
2018-07-08T00:16:10.305Z,101086.92
2018-07-08T00:18:39.352Z,101088.88
2018-07-08T00:21:07.876Z,101085.48
2018-07-08T00:23:36.395Z,101086.80
2018-07-08T00:26:04.975Z,101091.39
2018-07-08T00:28:33.637Z,101095.66
2018-07-08T00:31:02.138Z,101095.89
2018-07-08T00:33:30.712Z,101093.60
2018-07-08T00:35:59.132Z,101096.50
2018-07-08T00:38:27.566Z,101094.55
2018-07-08T00:40:56.135Z,101091.84
2018-07-08T00:43:24.619Z,101094.77
2018-07-08T00:45:53.159Z,101093.58
2018-07-08T00:48:21.616Z,101095.73
2018-07-08T00:50:51.080Z,101093.31
2018-07-08T00:53:19.612Z,101095.84
2018-07-08T00:55:48.080Z,101090.98
2018-07-08T00:58:16.663Z,101097.94
2018-07-08T01:00:45.213Z,101099.31
2018-07-08T01:03:13.703Z,101084.96
2018-07-08T01:05:42.244Z,101090.22
2018-07-08T01:08:10.753Z,101085.88
2018-07-08T01:10:39.238Z,101087.17
2018-07-08T01:13:07.778Z,101084.94
2018-07-08T01:15:36.276Z,101081.20
2018-07-08T01:18:04.891Z,101083.02
2018-07-08T01:20:33.453Z,101077.47
2018-07-08T01:23:01.867Z,101078.47
2018-07-08T01:25:41.383Z,101074.50
2018-07-08T01:28:09.857Z,101078.73
2018-07-08T01:30:38.351Z,101082.48
2018-07-08T01:33:06.892Z,101084.70
2018-07-08T01:35:35.454Z,101080.94
2018-07-08T01:38:03.931Z,101087.59
2018-07-08T01:40:32.448Z,101083.33
2018-07-08T01:43:00.997Z,101081.07
2018-07-08T01:45:29.440Z,101081.15
2018-07-08T01:47:57.854Z,101082.78
2018-07-08T01:50:26.290Z,101082.36
2018-07-08T01:52:54.700Z,101078.35
2018-07-08T01:55:23.127Z,101086.89
2018-07-08T01:57:51.579Z,101084.55
2018-07-08T02:00:20.077Z,101083.63
2018-07-08T02:02:48.524Z,101083.28
2018-07-08T02:05:17.088Z,101081.05
2018-07-08T02:07:45.546Z,101078.48
2018-07-08T02:10:14.024Z,101081.91
2018-07-08T02:12:42.674Z,101083.39
2018-07-08T02:15:11.163Z,101085.50
2018-07-08T02:17:39.676Z,101080.03
2018-07-08T02:20:08.531Z,101081.30
2018-07-08T02:22:37.021Z,101077.06
2018-07-08T02:25:05.496Z,101084.45
2018-07-08T02:27:34.067Z,101085.73
2018-07-08T02:30:02.549Z,101088.88
2018-07-08T02:32:31.036Z,101092.27
2018-07-08T02:34:59.681Z,101094.53
2018-07-08T02:37:28.255Z,101092.78
2018-07-08T02:39:56.889Z,101102.75
2018-07-08T02:42:25.315Z,101096.96
2018-07-08T02:44:53.854Z,101097.77
2018-07-08T02:47:22.525Z,101097.78
2018-07-08T02:49:51.117Z,101096.45
2018-07-08T02:52:20.381Z,101088.92
2018-07-08T02:54:48.790Z,101097.36
2018-07-08T02:57:17.531Z,101094.39
2018-07-08T02:59:46.181Z,101096.33
2018-07-08T03:02:14.692Z,101096.19
2018-07-08T03:04:43.205Z,101097.03
2018-07-08T03:07:11.648Z,101091.61
2018-07-08T03:09:40.100Z,101090.67
2018-07-08T03:12:08.659Z,101086.82
2018-07-08T03:14:37.176Z,101094.66
2018-07-08T03:17:05.674Z,101087.02
2018-07-08T03:19:34.115Z,101087.52
2018-07-08T03:22:02.608Z,101085.42
2018-07-08T03:24:31.118Z,101086.23
2018-07-08T03:26:59.630Z,101083.36
2018-07-08T03:29:28.170Z,101090.17
2018-07-08T03:31:56.572Z,101087.22
2018-07-08T03:34:25.009Z,101087.15
2018-07-08T03:36:53.464Z,101084.19
2018-07-08T03:39:21.858Z,101082.36
2018-07-08T03:41:50.296Z,101081.90
2018-07-08T03:44:18.720Z,101089.97
2018-07-08T03:46:47.132Z,101092.16
2018-07-08T03:49:15.595Z,101091.65
2018-07-08T03:51:44.008Z,101094.22
2018-07-08T03:54:29.488Z,101092.84
2018-07-08T03:56:57.967Z,101094.20
2018-07-08T03:59:26.476Z,101094.58
2018-07-08T04:01:54.974Z,101093.64
2018-07-08T04:04:23.416Z,101094.92
2018-07-08T04:06:51.969Z,101103.56
2018-07-08T04:09:20.805Z,101104.75
2018-07-08T04:11:49.432Z,101102.38
2018-07-08T04:14:17.934Z,101104.00
2018-07-08T04:16:47.060Z,101105.40
2018-07-08T04:19:15.782Z,101100.54
2018-07-08T04:21:44.252Z,101103.22
2018-07-08T04:24:12.943Z,101106.61
2018-07-08T04:26:41.502Z,101112.19
2018-07-08T04:29:10.112Z,101113.36
2018-07-08T04:31:38.565Z,101112.82
2018-07-08T04:34:07.129Z,101118.53
2018-07-08T04:36:35.524Z,101122.55
2018-07-08T04:39:04.719Z,101125.83
2018-07-08T04:41:33.175Z,101125.03
2018-07-08T04:44:01.567Z,101130.30
2018-07-08T04:46:30.028Z,101131.94
2018-07-08T04:48:58.443Z,101135.33
2018-07-08T04:51:26.863Z,101142.07
2018-07-08T04:53:55.341Z,101137.78
2018-07-08T04:56:23.858Z,101142.34
2018-07-08T04:58:52.354Z,101143.52
2018-07-08T05:01:20.765Z,101151.13
2018-07-08T05:03:49.219Z,101148.47
2018-07-08T05:06:17.608Z,101149.84
2018-07-08T05:08:46.058Z,101147.19
2018-07-08T05:11:14.504Z,101148.75
2018-07-08T05:13:42.989Z,101148.23
2018-07-08T05:16:11.405Z,101144.88
2018-07-08T05:18:39.806Z,101145.80
2018-07-08T05:21:08.628Z,101152.58
2018-07-08T05:23:37.129Z,101156.71
2018-07-08T05:26:05.662Z,101148.12
2018-07-08T05:28:34.096Z,101145.05
2018-07-08T05:31:02.485Z,101146.83
2018-07-08T05:33:31.033Z,101151.95
2018-07-08T05:35:59.476Z,101150.94
2018-07-08T05:38:27.972Z,101149.41
2018-07-08T05:40:56.433Z,101150.48
2018-07-08T05:43:24.916Z,101151.87
2018-07-08T05:45:53.335Z,101151.60
2018-07-08T05:48:21.801Z,101157.06
2018-07-08T05:50:50.266Z,101155.77
2018-07-08T05:53:18.665Z,101149.94
2018-07-08T05:55:47.178Z,101149.05
2018-07-08T05:58:15.609Z,101149.19
2018-07-08T06:00:44.020Z,101149.05
2018-07-08T06:03:12.702Z,101147.28
2018-07-08T06:05:41.182Z,101148.45
2018-07-08T06:08:09.627Z,101149.48
2018-07-08T06:10:38.108Z,101151.58
2018-07-08T06:13:06.747Z,101151.09
2018-07-08T06:15:35.253Z,101149.17
2018-07-08T06:18:03.676Z,101151.45
2018-07-08T06:20:32.085Z,101141.07
2018-07-08T06:23:00.534Z,101144.02
2018-07-08T06:25:28.961Z,101151.19
2018-07-08T06:27:57.529Z,101144.91
2018-07-08T06:30:26.005Z,101142.50
2018-07-08T06:33:09.781Z,101144.43
2018-07-08T06:35:39.574Z,101137.72
2018-07-08T06:38:08.009Z,101149.68
2018-07-08T06:40:36.555Z,101141.59
2018-07-08T06:43:05.041Z,101142.36
2018-07-08T06:45:33.491Z,101145.17
2018-07-08T06:48:01.884Z,101139.92
2018-07-08T06:50:30.372Z,101143.53
2018-07-08T06:52:58.819Z,101152.50
2018-07-08T06:55:27.268Z,101152.91
2018-07-08T06:57:55.771Z,101147.81
2018-07-08T07:00:24.435Z,101142.44
2018-07-08T07:02:52.884Z,101138.59
2018-07-08T07:05:21.451Z,101137.95
2018-07-08T07:07:50.038Z,101132.97
2018-07-08T07:10:18.554Z,101141.22
2018-07-08T07:12:47.037Z,101142.47
2018-07-08T07:15:15.514Z,101146.47
2018-07-08T07:17:45.604Z,101151.23
2018-07-08T07:20:14.320Z,101143.09
2018-07-08T07:22:43.916Z,101144.30
2018-07-08T07:25:12.508Z,101147.91
2018-07-08T07:27:41.084Z,101141.67
2018-07-08T07:30:09.679Z,101135.14
2018-07-08T07:32:38.655Z,101134.45
2018-07-08T07:35:07.198Z,101131.22
2018-07-08T07:37:36.886Z,101139.59
2018-07-08T07:40:05.519Z,101142.48
2018-07-08T07:42:34.146Z,101138.82
2018-07-08T07:45:02.690Z,101132.52
2018-07-08T07:47:31.209Z,101138.47
2018-07-08T07:50:00.092Z,101136.23
2018-07-08T07:52:29.911Z,101147.62
2018-07-08T07:54:58.444Z,101143.62
2018-07-08T07:57:26.894Z,101129.39
2018-07-08T07:59:55.581Z,101138.46
2018-07-08T08:02:24.062Z,101149.31
2018-07-08T08:04:52.530Z,101144.91
2018-07-08T08:07:20.957Z,101140.98
2018-07-08T08:09:49.430Z,101143.23
2018-07-08T08:12:17.917Z,101143.02
2018-07-08T08:14:46.600Z,101153.42
2018-07-08T08:17:15.359Z,101151.25
2018-07-08T08:19:44.076Z,101148.23
2018-07-08T08:22:12.599Z,101151.09
2018-07-08T08:24:41.172Z,101154.04
2018-07-08T08:27:10.064Z,101162.00
2018-07-08T08:29:40.246Z,101150.44
2018-07-08T08:32:08.728Z,101146.17
2018-07-08T08:34:56.096Z,101146.00
2018-07-08T08:37:25.953Z,101153.45
2018-07-08T08:39:54.815Z,101152.68
2018-07-08T08:42:23.425Z,101149.80
2018-07-08T08:44:52.671Z,101144.66
2018-07-08T08:47:22.032Z,101147.87
2018-07-08T08:49:51.371Z,101146.91
2018-07-08T08:52:19.884Z,101148.56
2018-07-08T08:54:48.366Z,101151.48
2018-07-08T08:57:16.823Z,101153.31
2018-07-08T08:59:45.272Z,101153.65
2018-07-08T09:02:13.889Z,101154.48
2018-07-08T09:04:43.266Z,101145.30
2018-07-08T09:07:13.887Z,101143.36
2018-07-08T09:09:42.615Z,101144.57
2018-07-08T09:12:12.020Z,101138.55
2018-07-08T09:14:41.069Z,101145.24
2018-07-08T09:17:09.722Z,101139.95
2018-07-08T09:19:38.314Z,101139.05
2018-07-08T09:22:07.512Z,101143.95
2018-07-08T09:24:36.233Z,101150.19
2018-07-08T09:27:05.171Z,101141.88
2018-07-08T09:29:33.747Z,101141.63
2018-07-08T09:32:02.402Z,101141.91
2018-07-08T09:34:31.142Z,101142.19
2018-07-08T09:36:59.827Z,101141.60
2018-07-08T09:39:28.259Z,101141.69
2018-07-08T09:41:56.894Z,101141.09
2018-07-08T09:44:25.393Z,101140.09
2018-07-08T09:46:53.858Z,101144.80
2018-07-08T09:49:22.282Z,101153.00
2018-07-08T09:51:50.751Z,101153.68
2018-07-08T09:54:19.233Z,101154.83
2018-07-08T09:56:47.982Z,101150.70
2018-07-08T09:59:16.460Z,101151.70
2018-07-08T10:01:47.318Z,101149.36
2018-07-08T10:04:17.113Z,101149.81
2018-07-08T10:06:46.498Z,101147.83
2018-07-08T10:09:16.224Z,101154.45
2018-07-08T10:11:44.847Z,101155.55
2018-07-08T10:14:15.455Z,101149.70
2018-07-08T10:16:44.007Z,101151.30
2018-07-08T10:19:13.900Z,101149.72
2018-07-08T10:21:42.339Z,101154.09
2018-07-08T10:24:11.330Z,101151.86
2018-07-08T10:26:39.864Z,101154.56
2018-07-08T10:29:08.339Z,101152.94
2018-07-08T10:31:45.699Z,101150.16
2018-07-08T10:34:14.268Z,101148.66
2018-07-08T10:36:42.726Z,101150.91
2018-07-08T10:39:12.412Z,101142.83
2018-07-08T10:41:41.769Z,101141.38
2018-07-08T10:44:10.714Z,101145.33
2018-07-08T10:46:39.124Z,101141.41
2018-07-08T10:49:07.981Z,101144.02
2018-07-08T10:51:36.622Z,101140.34
2018-07-08T10:54:05.143Z,101136.48
2018-07-08T10:56:33.667Z,101134.16
2018-07-08T10:59:02.205Z,101137.14
2018-07-08T11:01:31.097Z,101134.71
2018-07-08T11:03:59.750Z,101136.65
2018-07-08T11:06:28.305Z,101129.48
2018-07-08T11:08:56.787Z,101128.45
2018-07-08T11:11:25.243Z,101129.34
2018-07-08T11:13:53.880Z,101125.73
2018-07-08T11:16:22.491Z,101122.98
2018-07-08T11:18:51.033Z,101119.52
2018-07-08T11:21:19.508Z,101116.77
2018-07-08T11:23:47.981Z,101117.27
2018-07-08T11:26:16.479Z,101112.36
2018-07-08T11:28:45.000Z,101109.97
2018-07-08T11:31:13.446Z,101121.09
2018-07-08T11:33:41.963Z,101115.69
2018-07-08T11:36:10.380Z,101116.62
2018-07-08T11:38:38.923Z,101121.62
2018-07-08T11:41:07.490Z,101111.14
2018-07-08T11:43:35.964Z,101101.31
2018-07-08T11:46:04.404Z,101105.97
2018-07-08T11:48:32.828Z,101103.43
2018-07-08T11:51:01.277Z,101108.52
2018-07-08T11:53:29.775Z,101103.62
2018-07-08T11:55:58.341Z,101101.44
2018-07-08T11:58:26.779Z,101104.23
2018-07-08T12:00:55.239Z,101101.87
2018-07-08T12:03:23.802Z,101102.09
2018-07-08T12:05:52.309Z,101098.08
2018-07-08T12:08:20.818Z,101102.19
2018-07-08T12:10:49.302Z,101093.59
2018-07-08T12:13:17.758Z,101086.01
2018-07-08T12:15:46.312Z,101095.20
2018-07-08T12:18:14.770Z,101103.91
2018-07-08T12:20:43.406Z,101093.52
2018-07-08T12:23:11.830Z,101093.67
2018-07-08T12:25:40.285Z,101096.94
2018-07-08T12:28:08.749Z,101093.42
2018-07-08T12:30:37.298Z,101087.11
2018-07-08T12:33:06.170Z,101085.77
2018-07-08T12:35:34.652Z,101090.68
2018-07-08T12:38:03.085Z,101085.77
2018-07-08T12:40:31.507Z,101080.35
2018-07-08T12:43:00.071Z,101082.73
2018-07-08T12:45:28.504Z,101082.61
2018-07-08T12:47:57.051Z,101081.00
2018-07-08T12:50:25.831Z,101069.66
2018-07-08T12:52:54.460Z,101076.63
2018-07-08T12:55:23.189Z,101079.14
2018-07-08T12:57:51.629Z,101075.69
2018-07-08T13:00:20.182Z,101076.45
2018-07-08T13:02:48.633Z,101081.70
2018-07-08T13:05:17.083Z,101081.09
2018-07-08T13:07:45.536Z,101089.38
2018-07-08T13:10:14.035Z,101084.54
2018-07-08T13:12:42.494Z,101089.28
2018-07-08T13:15:10.958Z,101083.84
2018-07-08T13:17:39.346Z,101082.84
2018-07-08T13:20:08.587Z,101084.95
2018-07-08T13:22:37.004Z,101083.20
2018-07-08T13:25:05.471Z,101079.22
2018-07-08T13:27:34.018Z,101079.09
2018-07-08T13:30:02.418Z,101073.31
2018-07-08T13:32:30.851Z,101074.20
2018-07-08T13:34:59.327Z,101068.95
2018-07-08T13:37:27.814Z,101074.34
2018-07-08T13:39:56.263Z,101069.92
2018-07-08T13:42:24.695Z,101067.20
2018-07-08T13:44:53.153Z,101071.56
2018-07-08T13:47:21.678Z,101069.77
2018-07-08T13:49:50.114Z,101066.18
2018-07-08T13:52:18.544Z,101078.57
2018-07-08T13:54:47.121Z,101074.98
2018-07-08T13:57:15.559Z,101065.55
2018-07-08T13:59:44.103Z,101059.91
2018-07-08T14:02:12.510Z,101064.19
2018-07-08T14:04:40.999Z,101065.02
2018-07-08T14:07:09.434Z,101056.11
2018-07-08T14:09:37.901Z,101064.77
2018-07-08T14:12:06.756Z,101061.61
2018-07-08T14:14:35.203Z,101060.23
2018-07-08T14:17:03.799Z,101057.33
2018-07-08T14:19:32.334Z,101054.22
2018-07-08T14:22:00.881Z,101060.89
2018-07-08T14:24:29.433Z,101063.69
2018-07-08T14:26:57.896Z,101059.36
2018-07-08T14:29:26.526Z,101060.25
2018-07-08T14:31:55.204Z,101040.64
2018-07-08T14:34:23.715Z,101040.11
2018-07-08T14:36:52.193Z,101043.59
2018-07-08T14:39:20.643Z,101047.72
2018-07-08T14:41:49.216Z,101045.33
2018-07-08T14:44:17.737Z,101042.87
2018-07-08T14:46:46.223Z,101038.39
2018-07-08T14:49:14.729Z,101036.65
2018-07-08T14:51:43.299Z,101032.95
2018-07-08T14:54:11.891Z,101037.55
2018-07-08T14:56:40.413Z,101033.91
2018-07-08T14:59:08.986Z,101029.45
2018-07-08T15:01:37.458Z,101032.28
2018-07-08T15:04:05.979Z,101032.86
2018-07-08T15:06:34.416Z,101029.02
2018-07-08T15:09:06.279Z,101031.92
2018-07-08T15:11:34.750Z,101027.69
2018-07-08T15:14:03.492Z,101025.22
2018-07-08T15:16:31.903Z,101027.12
2018-07-08T15:19:00.534Z,101026.87
2018-07-08T15:21:29.164Z,101018.44
2018-07-08T15:23:57.572Z,101018.23
2018-07-08T15:26:25.978Z,101018.80
2018-07-08T15:28:54.631Z,101023.70
2018-07-08T15:31:23.108Z,101019.57
2018-07-08T15:33:51.688Z,101019.77
2018-07-08T15:36:20.207Z,101018.50
2018-07-08T15:38:48.650Z,101017.58
2018-07-08T15:41:17.061Z,101015.78
2018-07-08T15:43:45.664Z,101013.16
2018-07-08T15:46:14.178Z,101001.41
2018-07-08T15:48:42.670Z,101007.52
2018-07-08T15:51:11.170Z,100996.02
2018-07-08T15:53:39.827Z,101004.17
2018-07-08T15:56:08.507Z,101001.17
2018-07-08T15:58:36.988Z,101001.58
2018-07-08T16:01:08.396Z,100999.32
2018-07-08T16:03:36.832Z,101000.83
2018-07-08T16:06:05.350Z,100999.00
2018-07-08T16:08:33.767Z,100992.86
2018-07-08T16:11:02.210Z,100990.97
2018-07-08T16:13:30.690Z,100995.59
2018-07-08T16:15:59.339Z,100997.20
2018-07-08T16:18:28.185Z,100995.19
2018-07-08T16:20:56.662Z,100994.99
2018-07-08T16:23:25.115Z,100991.52
2018-07-08T16:25:53.669Z,100999.89
2018-07-08T16:28:22.612Z,100991.90
2018-07-08T16:30:51.054Z,100993.30
2018-07-08T16:33:19.601Z,100990.57
2018-07-08T16:35:52.848Z,100990.68
2018-07-08T16:38:21.291Z,100992.01
2018-07-08T16:40:50.320Z,100991.65
2018-07-08T16:43:18.803Z,100995.59
2018-07-08T16:45:47.354Z,100996.77
2018-07-08T16:48:15.938Z,100986.85
2018-07-08T16:50:44.459Z,100995.78
2018-07-08T16:53:13.032Z,100985.47
2018-07-08T16:55:41.476Z,100980.92
2018-07-08T16:58:09.911Z,100985.28
2018-07-08T17:00:38.326Z,100983.97
2018-07-08T17:03:06.790Z,100984.91
2018-07-08T17:05:35.596Z,100979.48
2018-07-08T17:08:04.222Z,100981.21
2018-07-08T17:10:33.591Z,100979.55
2018-07-08T17:13:05.131Z,100980.66
2018-07-08T17:15:33.674Z,100982.66
2018-07-08T17:18:02.150Z,100978.38
2018-07-08T17:20:30.760Z,100973.47
2018-07-08T17:22:59.251Z,100969.85
2018-07-08T17:25:27.813Z,100977.93
2018-07-08T17:27:56.283Z,100974.00
2018-07-08T17:30:25.591Z,100972.16
2018-07-08T17:32:54.024Z,100970.27
2018-07-08T17:35:22.454Z,100968.22
2018-07-08T17:37:50.982Z,100975.62
2018-07-08T17:40:19.436Z,100967.43
2018-07-08T17:42:47.873Z,100972.04
2018-07-08T17:45:16.340Z,100972.19
2018-07-08T17:47:44.886Z,100968.20
2018-07-08T17:50:13.262Z,100973.06
2018-07-08T17:52:41.756Z,100976.79
2018-07-08T17:55:10.175Z,100976.27
2018-07-08T17:57:38.994Z,100967.50
2018-07-08T18:00:07.458Z,100971.61
2018-07-08T18:02:35.974Z,100969.31
2018-07-08T18:05:04.664Z,100972.33
2018-07-08T18:07:33.060Z,100970.50
2018-07-08T18:10:01.543Z,100974.59
2018-07-08T18:12:30.101Z,100973.19
2018-07-08T18:14:58.492Z,100970.34
2018-07-08T18:17:26.941Z,100975.06
2018-07-08T18:19:55.477Z,100974.59
2018-07-08T18:22:24.033Z,100972.45
2018-07-08T18:24:52.544Z,100970.15
2018-07-08T18:27:21.017Z,100973.84
2018-07-08T18:29:49.550Z,100975.47
2018-07-08T18:32:18.073Z,100972.91
2018-07-08T18:34:46.633Z,100980.56
2018-07-08T18:37:15.186Z,100975.00
2018-07-08T18:39:44.033Z,100980.30
2018-07-08T18:42:12.595Z,100986.84
2018-07-08T18:44:41.061Z,100979.67
2018-07-08T18:47:10.136Z,100980.34
2018-07-08T18:49:38.723Z,100987.61
2018-07-08T18:52:07.176Z,100992.90
2018-07-08T18:54:35.930Z,100991.27
2018-07-08T18:57:04.495Z,100992.05
2018-07-08T18:59:33.398Z,101000.16
2018-07-08T19:02:01.910Z,100999.53
2018-07-08T19:04:31.080Z,100999.14
2018-07-08T19:07:00.274Z,101003.84
2018-07-08T19:09:28.791Z,101004.59
2018-07-08T19:11:57.221Z,101009.28
2018-07-08T19:14:25.632Z,101007.41
2018-07-08T19:16:54.113Z,101013.67
2018-07-08T19:19:22.696Z,101011.80
2018-07-08T19:21:51.279Z,101011.61
2018-07-08T19:24:19.977Z,101014.67
2018-07-08T19:26:48.454Z,101016.25
2018-07-08T19:29:17.226Z,101018.64
2018-07-08T19:31:45.751Z,101019.83
2018-07-08T19:34:15.439Z,101021.77
2018-07-08T19:36:43.954Z,101026.11
2018-07-08T19:39:12.403Z,101024.45
2018-07-08T19:41:41.582Z,101027.13
2018-07-08T19:44:10.096Z,101031.47
2018-07-08T19:46:38.800Z,101030.61
2018-07-08T19:49:07.272Z,101032.05
2018-07-08T19:51:35.745Z,101038.26
2018-07-08T19:54:04.294Z,101033.59
2018-07-08T19:56:32.853Z,101029.91
2018-07-08T19:59:01.373Z,101040.91
2018-07-08T20:01:29.929Z,101038.27
2018-07-08T20:03:58.493Z,101038.13
2018-07-08T20:06:26.968Z,101042.69
2018-07-08T20:08:55.393Z,101039.66
2018-07-08T20:11:23.907Z,101042.95
2018-07-08T20:13:52.712Z,101043.37
2018-07-08T20:16:21.204Z,101045.25
2018-07-08T20:18:49.687Z,101047.09
2018-07-08T20:21:18.621Z,101042.31
2018-07-08T20:23:46.836Z,101046.34
2018-07-08T20:26:15.339Z,101045.06
2018-07-08T20:28:43.849Z,101047.66
2018-07-08T20:31:12.289Z,101053.84
2018-07-08T20:33:40.677Z,101056.22
2018-07-08T20:36:09.094Z,101053.42
2018-07-08T20:38:37.812Z,101060.14
2018-07-08T20:41:06.495Z,101061.67
2018-07-08T20:43:35.166Z,101058.61
2018-07-08T20:46:03.656Z,101062.75
2018-07-08T20:48:32.343Z,101058.31
2018-07-08T20:51:00.989Z,101058.31
2018-07-08T20:53:29.494Z,101060.91
2018-07-08T20:55:57.989Z,101053.87
2018-07-08T20:58:26.508Z,101059.61
2018-07-08T21:00:54.998Z,101060.74
2018-07-08T21:03:23.540Z,101061.08
2018-07-08T21:05:52.059Z,101059.80
2018-07-08T21:08:20.504Z,101064.34
2018-07-08T21:10:49.118Z,101065.25
2018-07-08T21:13:17.568Z,101073.17
2018-07-08T21:15:46.076Z,101075.10
2018-07-08T21:18:15.649Z,101069.35
2018-07-08T21:20:44.155Z,101071.80
2018-07-08T21:23:12.702Z,101075.69
2018-07-08T21:25:41.291Z,101078.66
2018-07-08T21:28:09.780Z,101083.92
2018-07-08T21:30:38.286Z,101084.63
2018-07-08T21:33:06.739Z,101081.26
2018-07-08T21:35:35.243Z,101087.10
2018-07-08T21:38:03.876Z,101089.02
2018-07-08T21:40:32.402Z,101090.13
2018-07-08T21:43:00.912Z,101084.54
2018-07-08T21:45:29.411Z,101091.55
2018-07-08T21:47:57.875Z,101087.35
2018-07-08T21:50:26.491Z,101092.49
2018-07-08T21:52:54.996Z,101093.95
2018-07-08T21:55:23.718Z,101094.30
2018-07-08T21:57:52.178Z,101095.45
2018-07-08T22:00:29.783Z,101094.25
2018-07-08T22:02:58.372Z,101092.28
2018-07-08T22:05:27.787Z,101093.40
2018-07-08T22:08:06.192Z,101095.41
2018-07-08T22:10:34.787Z,101097.03
2018-07-08T22:13:03.969Z,101095.66
2018-07-08T22:15:32.537Z,101097.15
2018-07-08T22:18:01.076Z,101101.15
2018-07-08T22:20:29.700Z,101098.74
2018-07-08T22:22:58.207Z,101098.91
2018-07-08T22:25:26.666Z,101100.95
2018-07-08T22:27:55.152Z,101106.75
2018-07-08T22:30:23.700Z,101099.48
2018-07-08T22:32:52.152Z,101102.50
2018-07-08T22:35:20.610Z,101099.50
2018-07-08T22:37:49.062Z,101099.17
2018-07-08T22:40:17.468Z,101110.73
2018-07-08T22:42:46.049Z,101112.31
2018-07-08T22:45:14.581Z,101106.39
2018-07-08T22:47:43.052Z,101112.50
2018-07-08T22:50:11.616Z,101110.36
2018-07-08T22:52:40.092Z,101122.72
2018-07-08T22:55:08.631Z,101116.75
2018-07-08T22:57:37.175Z,101117.35
2018-07-08T23:00:16.804Z,101116.19
2018-07-08T23:02:46.524Z,101114.63
2018-07-08T23:05:15.617Z,101114.45
2018-07-08T23:07:44.161Z,101115.30
2018-07-08T23:10:13.063Z,101115.05
2018-07-08T23:12:41.545Z,101115.05
2018-07-08T23:15:10.060Z,101114.80
2018-07-08T23:17:38.628Z,101119.95
2018-07-08T23:20:07.226Z,101118.98
2018-07-08T23:22:46.744Z,101112.64
2018-07-08T23:25:15.233Z,101117.20
2018-07-08T23:27:43.764Z,101117.23
2018-07-08T23:30:12.236Z,101114.73
2018-07-08T23:32:40.872Z,101112.86
2018-07-08T23:35:09.346Z,101114.43
2018-07-08T23:37:37.854Z,101116.60
2018-07-08T23:40:06.414Z,101126.42
2018-07-08T23:42:34.927Z,101119.81
2018-07-08T23:45:03.387Z,101123.27
2018-07-08T23:47:31.777Z,101120.80
2018-07-08T23:50:00.247Z,101123.88
2018-07-08T23:52:28.797Z,101124.00
2018-07-08T23:54:57.324Z,101124.64
2018-07-08T23:57:40.388Z,101124.87
